Faith, Minnesota
Current Conditions -  °F | °C
As of 1:35 AM on Saturday 29 Nov 2014 (Local Time) from K3N8 Reporting Station
Broken Clouds Broken Clouds  
Wind Chill:   Ceiling: 1300
Heat Index: 19°   Visibility: 10mi
Dew Point: 15°   Wind: 9mph
Humidity: 86%   Direction: 180°S
Pressure: 29.52"   Gusts: NA
Location:  47.2382°N, 96.2513°W
Report Text: K3N8 290735Z AUTO 18008KT 10SM BKN013 BKN100 BKN120 M07/M09 A2952 RMK AO2 T10721092
Loading
Personal Weather Stations






























Interactive Weather Map New forecast layout! Learn more

10-Day Weather Forecast

Advertisements
Track Severe Weather on mobile